createdAt,value
2023-02-08T00:03:00.877Z,96.30
2023-02-08T00:08:02.684Z,96.40
2023-02-08T00:13:04.513Z,96.80
2023-02-08T00:18:06.623Z,96.80
2023-02-08T00:23:08.586Z,97.10
2023-02-08T00:28:13.614Z,96.80
2023-02-08T00:33:15.619Z,97.00
2023-02-08T00:38:17.614Z,96.90
2023-02-08T00:43:19.415Z,97.10
2023-02-08T00:48:21.209Z,97.80
2023-02-08T00:53:23.049Z,97.80
2023-02-08T00:58:24.975Z,97.40
2023-02-08T01:03:27.201Z,97.60
2023-02-08T01:08:29.357Z,97.80
2023-02-08T01:13:31.238Z,97.80
2023-02-08T01:18:33.089Z,97.70
2023-02-08T01:23:35.308Z,97.40
2023-02-08T01:28:37.787Z,97.50
2023-02-08T01:33:40.152Z,97.70
2023-02-08T01:38:42.933Z,97.50
2023-02-08T01:44:01.716Z,97.80
2023-02-08T01:49:14.985Z,97.80
2023-02-08T01:54:19.804Z,98.00
2023-02-08T01:59:29.357Z,97.70
2023-02-08T02:04:31.312Z,97.80
2023-02-08T02:09:47.795Z,97.60
2023-02-08T02:14:49.705Z,97.30
2023-02-08T02:20:11.227Z,97.60
2023-02-08T02:25:31.582Z,97.50
2023-02-08T02:30:46.512Z,97.40
2023-02-08T02:36:06.314Z,97.20
2023-02-08T02:41:36.991Z,97.60
2023-02-08T02:46:43.504Z,97.60
2023-02-08T02:51:59.334Z,97.60
2023-02-08T02:57:07.479Z,97.70
2023-02-08T03:02:10.029Z,97.60
2023-02-08T03:07:20.860Z,97.50
2023-02-08T03:12:46.911Z,97.20
2023-02-08T03:17:59.230Z,97.10
2023-02-08T03:23:16.457Z,97.60
2023-02-08T03:28:20.695Z,97.40
2023-02-08T03:33:31.770Z,97.50
2023-02-08T03:38:38.247Z,97.30
2023-02-08T03:43:48.164Z,97.20
2023-02-08T03:48:55.172Z,97.60
2023-02-08T03:53:58.394Z,97.20
2023-02-08T03:59:03.227Z,97.60
2023-02-08T04:04:05.150Z,97.20
2023-02-08T04:09:07.006Z,97.40
2023-02-08T04:14:08.906Z,97.90
2023-02-08T04:19:10.741Z,97.60
2023-02-08T04:24:12.623Z,97.70
2023-02-08T04:29:14.508Z,97.40
2023-02-08T04:34:16.527Z,97.70
2023-02-08T04:39:18.367Z,97.60
2023-02-08T04:44:20.243Z,97.40
2023-02-08T04:49:22.145Z,97.30
2023-02-08T04:54:25.470Z,97.90
2023-02-08T04:59:27.541Z,98.10
2023-02-08T05:04:30.889Z,97.90
2023-02-08T05:09:32.796Z,98.00
2023-02-08T05:14:34.654Z,97.90
2023-02-08T05:19:36.499Z,98.30
2023-02-08T05:24:38.348Z,98.20
2023-02-08T05:29:40.318Z,98.60
2023-02-08T05:34:42.396Z,98.50
2023-02-08T05:39:44.258Z,98.30
2023-02-08T05:44:46.117Z,98.20
2023-02-08T05:49:47.971Z,97.80
2023-02-08T05:54:50.028Z,97.50
2023-02-08T05:59:51.967Z,97.70
2023-02-08T06:04:53.808Z,97.70
2023-02-08T06:09:55.660Z,97.70
2023-02-08T06:14:57.509Z,97.80
2023-02-08T06:19:59.411Z,97.60
2023-02-08T06:25:02.025Z,97.50
2023-02-08T06:30:04.410Z,97.90
2023-02-08T06:35:07.421Z,97.80
2023-02-08T06:40:10.305Z,97.90
2023-02-08T06:45:13.669Z,97.80
2023-02-08T06:50:15.641Z,97.70
2023-02-08T06:55:17.999Z,98.10
2023-02-08T07:00:20.054Z,99.10
2023-02-08T07:05:21.931Z,98.50
2023-02-08T07:10:23.839Z,97.00
2023-02-08T07:15:25.762Z,95.80
2023-02-08T07:20:27.684Z,94.90
2023-02-08T07:25:29.520Z,94.10
2023-02-08T07:30:31.425Z,93.20
2023-02-08T07:35:33.272Z,92.90
2023-02-08T07:40:35.117Z,92.60
2023-02-08T07:45:40.675Z,92.10
2023-02-08T07:50:42.596Z,91.70
2023-02-08T07:55:46.209Z,92.20
2023-02-08T08:00:48.292Z,91.70
2023-02-08T08:05:53.068Z,91.70
2023-02-08T08:10:57.337Z,91.40
2023-02-08T08:15:59.319Z,91.00
2023-02-08T08:21:01.209Z,90.80
2023-02-08T08:26:10.785Z,90.40
2023-02-08T08:31:18.071Z,90.10
2023-02-08T08:36:20.111Z,89.10
2023-02-08T08:41:27.200Z,87.50
2023-02-08T08:46:29.165Z,86.70
2023-02-08T08:51:35.184Z,86.10
2023-02-08T08:56:39.346Z,83.90
2023-02-08T09:01:42.767Z,84.90
2023-02-08T09:06:44.696Z,86.80
2023-02-08T09:11:46.845Z,89.00
2023-02-08T09:16:49.228Z,90.00
2023-02-08T09:21:51.122Z,90.20
2023-02-08T09:26:52.961Z,90.50
2023-02-08T09:31:54.919Z,90.80
2023-02-08T09:36:56.938Z,90.50
2023-02-08T09:42:36.568Z,91.10
2023-02-08T09:47:43.330Z,91.40
2023-02-08T09:53:18.314Z,90.50
2023-02-08T09:58:31.082Z,90.30
2023-02-08T10:03:42.522Z,90.70
2023-02-08T10:08:45.576Z,91.00
2023-02-08T10:14:06.444Z,90.50
2023-02-08T10:19:45.691Z,90.60
2023-02-08T10:25:02.398Z,91.30
2023-02-08T10:30:38.594Z,91.60
2023-02-08T10:35:48.115Z,91.70
2023-02-08T10:40:53.427Z,91.00
2023-02-08T10:46:07.448Z,90.60
2023-02-08T10:51:17.743Z,90.60
2023-02-08T10:56:37.268Z,91.00
2023-02-08T11:01:39.343Z,90.40
2023-02-08T11:06:42.603Z,90.60
2023-02-08T11:11:46.688Z,90.10
2023-02-08T11:16:56.533Z,90.00
2023-02-08T11:21:59.054Z,90.20
2023-02-08T11:27:01.674Z,90.20
2023-02-08T11:32:20.189Z,90.20
2023-02-08T11:37:26.594Z,86.70
2023-02-08T11:42:36.383Z,85.10
2023-02-08T11:47:38.288Z,82.00
2023-02-08T11:52:43.794Z,78.10
2023-02-08T11:58:03.302Z,77.90
2023-02-08T12:03:12.850Z,74.70
2023-02-08T12:08:45.072Z,76.70
2023-02-08T12:14:09.536Z,73.00
2023-02-08T12:19:39.378Z,73.10
2023-02-08T12:25:02.234Z,75.60
2023-02-08T12:30:12.529Z,74.70
2023-02-08T12:35:43.390Z,74.30
2023-02-08T12:41:30.561Z,75.60
2023-02-08T12:47:01.617Z,74.70
2023-02-08T12:52:25.648Z,73.80
2023-02-08T12:57:30.209Z,75.30
2023-02-08T13:02:47.354Z,74.60
2023-02-08T13:07:51.896Z,73.90
2023-02-08T13:13:08.652Z,74.40
2023-02-08T13:18:23.669Z,75.00
2023-02-08T13:23:43.486Z,75.10
2023-02-08T13:28:58.322Z,75.70
2023-02-08T13:34:09.592Z,75.80
2023-02-08T13:39:28.163Z,76.30
2023-02-08T13:44:34.003Z,76.30
2023-02-08T13:49:50.983Z,77.80
2023-02-08T13:55:31.971Z,76.20
2023-02-08T14:00:35.524Z,77.10
2023-02-08T14:05:53.724Z,78.00
2023-02-08T14:11:14.144Z,78.70
2023-02-08T14:16:29.768Z,80.10
2023-02-08T14:21:34.558Z,79.20
2023-02-08T14:26:36.711Z,79.30
2023-02-08T14:31:41.929Z,79.50
2023-02-08T14:36:43.803Z,79.90
2023-02-08T14:41:49.272Z,80.30
2023-02-08T14:46:54.490Z,80.90
2023-02-08T14:52:04.435Z,81.90
2023-02-08T14:57:34.108Z,81.40
2023-02-08T15:02:41.353Z,81.30
2023-02-08T15:07:50.474Z,81.60
2023-02-08T15:13:02.350Z,81.80
2023-02-08T15:18:06.349Z,81.80
2023-02-08T15:23:22.510Z,82.30
2023-02-08T15:28:27.146Z,83.30
2023-02-08T15:33:29.198Z,83.30
2023-02-08T15:38:31.543Z,84.00
2023-02-08T15:43:34.220Z,84.40
2023-02-08T15:48:36.400Z,85.30
2023-02-08T15:53:40.964Z,86.00
2023-02-08T15:58:49.372Z,86.20
2023-02-08T16:03:56.329Z,86.30
2023-02-08T16:09:00.396Z,86.80
2023-02-08T16:14:03.716Z,87.90
2023-02-08T16:19:29.002Z,88.60
2023-02-08T16:24:30.880Z,89.20
2023-02-08T16:29:36.103Z,89.80
2023-02-08T16:34:38.564Z,90.00
2023-02-08T16:39:52.648Z,90.30
2023-02-08T16:45:17.569Z,90.20
2023-02-08T16:50:25.355Z,90.50
2023-02-08T16:55:37.079Z,91.10
2023-02-08T17:00:38.879Z,91.10
2023-02-08T17:05:41.258Z,91.40
2023-02-08T17:10:44.295Z,91.60
2023-02-08T17:15:48.358Z,91.90
2023-02-08T17:20:50.817Z,92.10
2023-02-08T17:25:52.721Z,92.60
2023-02-08T17:30:54.643Z,92.40
2023-02-08T17:35:56.476Z,92.80
2023-02-08T17:41:00.290Z,93.00
2023-02-08T17:46:02.174Z,93.10
2023-02-08T17:51:13.620Z,92.80
2023-02-08T17:56:20.421Z,93.20
2023-02-08T18:01:25.137Z,93.60
2023-02-08T18:06:27.090Z,93.90
2023-02-08T18:11:29.296Z,94.00
2023-02-08T18:16:31.614Z,94.30
2023-02-08T18:21:33.572Z,94.90
2023-02-08T18:26:35.411Z,94.90
2023-02-08T18:31:37.772Z,95.20
2023-02-08T18:36:39.628Z,94.70
2023-02-08T18:41:43.147Z,94.80
2023-02-08T18:46:47.642Z,94.80
2023-02-08T18:51:49.613Z,94.30
2023-02-08T18:56:55.856Z,94.30
2023-02-08T19:01:57.691Z,95.00
2023-02-08T19:06:59.761Z,95.10
2023-02-08T19:12:01.555Z,95.10
2023-02-08T19:17:03.524Z,95.00
2023-02-08T19:22:05.401Z,95.40
2023-02-08T19:27:07.233Z,95.40
2023-02-08T19:32:09.139Z,95.60
2023-02-08T19:37:11.072Z,95.50
2023-02-08T19:42:12.889Z,95.60
2023-02-08T19:47:14.747Z,95.50
2023-02-08T19:52:20.609Z,95.90
2023-02-08T19:57:22.473Z,96.10
2023-02-08T20:02:27.319Z,96.10
2023-02-08T20:07:29.244Z,96.00
2023-02-08T20:12:31.050Z,96.00
2023-02-08T20:17:32.860Z,96.20
2023-02-08T20:22:34.737Z,96.30
2023-02-08T20:27:36.534Z,96.10
2023-02-08T20:32:39.866Z,96.00
2023-02-08T20:37:42.176Z,96.40
2023-02-08T20:42:45.180Z,96.40
2023-02-08T20:47:51.342Z,96.40
2023-02-08T20:52:53.210Z,96.90
2023-02-08T20:57:59.689Z,97.00
2023-02-08T21:03:01.500Z,96.70
2023-02-08T21:08:03.304Z,96.20
2023-02-08T21:13:05.239Z,96.70
2023-02-08T21:18:07.205Z,96.90
2023-02-08T21:23:09.147Z,97.30
2023-02-08T21:28:11.826Z,97.70
2023-02-08T21:33:13.715Z,98.30
2023-02-08T21:38:15.551Z,98.30
2023-02-08T21:43:17.345Z,98.00
2023-02-08T21:48:19.163Z,98.30
2023-02-08T21:53:53.040Z,99.00
2023-02-08T21:58:54.873Z,98.90
2023-02-08T22:03:56.665Z,98.60
2023-02-08T22:08:59.265Z,98.50
2023-02-08T22:14:01.200Z,98.30
2023-02-08T22:19:03.437Z,98.10
2023-02-08T22:24:05.533Z,98.30
2023-02-08T22:29:07.327Z,98.10
2023-02-08T22:34:09.134Z,98.00
2023-02-08T22:39:11.058Z,98.10
2023-02-08T22:44:12.869Z,97.70
2023-02-08T22:49:14.683Z,97.90
2023-02-08T22:54:16.490Z,97.90
2023-02-08T22:59:21.110Z,98.00
2023-02-08T23:04:23.040Z,97.90
2023-02-08T23:09:26.210Z,98.50
2023-02-08T23:14:28.029Z,98.40
2023-02-08T23:19:30.032Z,98.30
2023-02-08T23:24:32.035Z,98.30
2023-02-08T23:29:33.865Z,98.40
2023-02-08T23:34:35.714Z,98.40
2023-02-08T23:39:37.538Z,98.60
2023-02-08T23:44:39.446Z,98.40
2023-02-08T23:49:41.281Z,98.30
2023-02-08T23:54:43.306Z,98.80
2023-02-08T23:59:45.132Z,99.10
